sensor_id;sensor_type;location;lat;lon;timestamp;pressure;altitude;pressure_sealevel;temperature;humidity
6389;BME280;3227;42.654;23.360;2023-01-29T00:01:43;94491.16;;;1.90;87.88
6389;BME280;3227;42.654;23.360;2023-01-29T00:04:10;94472.00;;;1.97;88.61
6389;BME280;3227;42.654;23.360;2023-01-29T00:06:37;94501.38;;;2.20;86.60
6389;BME280;3227;42.654;23.360;2023-01-29T00:09:04;94504.94;;;2.27;87.28
6389;BME280;3227;42.654;23.360;2023-01-29T00:11:31;94506.94;;;2.37;87.07
6389;BME280;3227;42.654;23.360;2023-01-29T00:13:58;94511.44;;;2.47;85.71
6389;BME280;3227;42.654;23.360;2023-01-29T00:16:25;94509.53;;;2.40;86.32
6389;BME280;3227;42.654;23.360;2023-01-29T00:18:53;94520.63;;;2.44;85.70
6389;BME280;3227;42.654;23.360;2023-01-29T00:21:21;94476.44;;;2.33;85.86
6389;BME280;3227;42.654;23.360;2023-01-29T00:23:48;94520.59;;;2.71;85.46
6389;BME280;3227;42.654;23.360;2023-01-29T00:26:16;94509.88;;;2.79;84.85
6389;BME280;3227;42.654;23.360;2023-01-29T00:28:43;94523.81;;;2.95;83.22
6389;BME280;3227;42.654;23.360;2023-01-29T00:31:12;94522.94;;;2.94;83.75
6389;BME280;3227;42.654;23.360;2023-01-29T00:33:39;94528.13;;;2.99;83.28
6389;BME280;3227;42.654;23.360;2023-01-29T00:36:10;94517.84;;;2.93;82.57
6389;BME280;3227;42.654;23.360;2023-01-29T00:38:38;94520.59;;;3.00;82.14
6389;BME280;3227;42.654;23.360;2023-01-29T00:41:05;94504.63;;;2.73;82.30
6389;BME280;3227;42.654;23.360;2023-01-29T00:43:49;94525.22;;;2.85;83.05
6389;BME280;3227;42.654;23.360;2023-01-29T00:46:34;94506.59;;;2.83;83.61
6389;BME280;3227;42.654;23.360;2023-01-29T00:49:01;94527.22;;;2.95;83.35
6389;BME280;3227;42.654;23.360;2023-01-29T00:51:29;94525.75;;;3.03;82.71
6389;BME280;3227;42.654;23.360;2023-01-29T00:53:56;94498.78;;;3.05;82.27
6389;BME280;3227;42.654;23.360;2023-01-29T00:56:23;94523.50;;;3.14;82.68
6389;BME280;3227;42.654;23.360;2023-01-29T00:58:50;94500.25;;;2.97;81.91
6389;BME280;3227;42.654;23.360;2023-01-29T01:01:16;94520.59;;;3.00;82.43
6389;BME280;3227;42.654;23.360;2023-01-29T01:04:03;94520.28;;;2.90;83.06
6389;BME280;3227;42.654;23.360;2023-01-29T01:06:30;94521.41;;;2.99;83.98
6389;BME280;3227;42.654;23.360;2023-01-29T01:08:57;94517.50;;;3.11;83.19
6389;BME280;3227;42.654;23.360;2023-01-29T01:11:42;94521.66;;;3.09;83.65
6389;BME280;3227;42.654;23.360;2023-01-29T01:14:08;94512.19;;;3.01;82.91
6389;BME280;3227;42.654;23.360;2023-01-29T01:16:35;94489.41;;;3.01;83.69
6389;BME280;3227;42.654;23.360;2023-01-29T01:19:02;94521.09;;;3.19;83.23
6389;BME280;3227;42.654;23.360;2023-01-29T01:21:30;94509.00;;;3.09;83.45
6389;BME280;3227;42.654;23.360;2023-01-29T01:23:57;94422.81;;;2.43;83.85
6389;BME280;3227;42.654;23.360;2023-01-29T01:26:24;94502.50;;;2.88;84.82
6389;BME280;3227;42.654;23.360;2023-01-29T01:28:51;94511.75;;;2.86;84.85
6389;BME280;3227;42.654;23.360;2023-01-29T01:31:18;94510.75;;;2.81;85.88
6389;BME280;3227;42.654;23.360;2023-01-29T01:33:45;94512.69;;;2.90;84.91
6389;BME280;3227;42.654;23.360;2023-01-29T01:36:11;94512.03;;;2.95;85.14
6389;BME280;3227;42.654;23.360;2023-01-29T01:38:41;94494.69;;;2.79;84.53
6389;BME280;3227;42.654;23.360;2023-01-29T01:41:10;94516.81;;;2.86;84.70
6389;BME280;3227;42.654;23.360;2023-01-29T01:43:49;94511.66;;;2.83;84.60
6389;BME280;3227;42.654;23.360;2023-01-29T01:46:16;94479.41;;;2.76;85.32
6389;BME280;3227;42.654;23.360;2023-01-29T01:48:43;94497.97;;;2.77;84.90
6389;BME280;3227;42.654;23.360;2023-01-29T01:51:11;94521.63;;;3.07;84.96
6389;BME280;3227;42.654;23.360;2023-01-29T01:53:42;94517.34;;;3.04;85.22
6389;BME280;3227;42.654;23.360;2023-01-29T01:56:13;94525.09;;;3.11;84.73
6389;BME280;3227;42.654;23.360;2023-01-29T01:58:43;94497.00;;;3.01;84.11
6389;BME280;3227;42.654;23.360;2023-01-29T02:01:11;94530.22;;;3.14;84.33
6389;BME280;3227;42.654;23.360;2023-01-29T02:03:42;94530.06;;;3.08;84.34
6389;BME280;3227;42.654;23.360;2023-01-29T02:06:27;94474.44;;;2.79;84.84
6389;BME280;3227;42.654;23.360;2023-01-29T02:09:17;94535.47;;;3.20;84.01
6389;BME280;3227;42.654;23.360;2023-01-29T02:12:00;94521.53;;;3.04;84.39
6389;BME280;3227;42.654;23.360;2023-01-29T02:14:27;94530.72;;;3.00;85.18
6389;BME280;3227;42.654;23.360;2023-01-29T02:16:55;94526.88;;;3.15;84.12
6389;BME280;3227;42.654;23.360;2023-01-29T02:19:31;94536.94;;;3.12;84.96
6389;BME280;3227;42.654;23.360;2023-01-29T02:22:10;94535.22;;;3.11;84.71
6389;BME280;3227;42.654;23.360;2023-01-29T02:25:00;94546.25;;;3.13;85.29
6389;BME280;3227;42.654;23.360;2023-01-29T02:27:45;94536.91;;;3.10;85.01
6389;BME280;3227;42.654;23.360;2023-01-29T02:30:19;94502.41;;;2.84;85.26
6389;BME280;3227;42.654;23.360;2023-01-29T02:32:55;94542.72;;;3.08;84.50
6389;BME280;3227;42.654;23.360;2023-01-29T02:35:28;94526.16;;;2.89;85.25
6389;BME280;3227;42.654;23.360;2023-01-29T02:38:07;94459.19;;;2.48;85.56
6389;BME280;3227;42.654;23.360;2023-01-29T02:40:43;94554.56;;;3.09;85.83
6389;BME280;3227;42.654;23.360;2023-01-29T02:43:22;94551.88;;;3.02;85.76
6389;BME280;3227;42.654;23.360;2023-01-29T02:46:00;94510.97;;;2.89;85.88
6389;BME280;3227;42.654;23.360;2023-01-29T02:48:38;94466.41;;;2.64;85.60
6389;BME280;3227;42.654;23.360;2023-01-29T02:51:09;94553.06;;;3.15;86.11
6389;BME280;3227;42.654;23.360;2023-01-29T02:53:43;94559.16;;;3.22;86.12
6389;BME280;3227;42.654;23.360;2023-01-29T02:56:16;94558.06;;;3.12;85.83
6389;BME280;3227;42.654;23.360;2023-01-29T02:58:48;94557.75;;;3.01;86.42
6389;BME280;3227;42.654;23.360;2023-01-29T03:01:25;94552.78;;;3.04;86.32
6389;BME280;3227;42.654;23.360;2023-01-29T03:03:57;94552.50;;;2.95;86.57
6389;BME280;3227;42.654;23.360;2023-01-29T03:06:29;94554.94;;;2.92;87.25
6389;BME280;3227;42.654;23.360;2023-01-29T03:09:00;94553.97;;;2.87;87.71
6389;BME280;3227;42.654;23.360;2023-01-29T03:11:31;94549.84;;;2.91;88.14
6389;BME280;3227;42.654;23.360;2023-01-29T03:14:02;94459.16;;;2.46;87.88
6389;BME280;3227;42.654;23.360;2023-01-29T03:16:36;94561.50;;;3.16;88.08
6389;BME280;3227;42.654;23.360;2023-01-29T03:19:07;94544.19;;;2.99;86.88
6389;BME280;3227;42.654;23.360;2023-01-29T03:21:39;94510.91;;;2.86;86.64
6389;BME280;3227;42.654;23.360;2023-01-29T03:24:24;94567.38;;;3.15;86.46
6389;BME280;3227;42.654;23.360;2023-01-29T03:27:11;94546.81;;;3.02;86.55
6389;BME280;3227;42.654;23.360;2023-01-29T03:29:57;94546.81;;;3.02;86.17
6389;BME280;3227;42.654;23.360;2023-01-29T03:32:45;94574.31;;;3.20;85.93
6389;BME280;3227;42.654;23.360;2023-01-29T03:35:16;94527.28;;;2.98;84.99
6389;BME280;3227;42.654;23.360;2023-01-29T03:37:46;94546.84;;;3.04;84.83
6389;BME280;3227;42.654;23.360;2023-01-29T03:40:14;94564.00;;;3.14;84.85
6389;BME280;3227;42.654;23.360;2023-01-29T03:42:51;94573.25;;;3.14;83.73
6389;BME280;3227;42.654;23.360;2023-01-29T03:45:26;94533.13;;;2.96;85.01
6389;BME280;3227;42.654;23.360;2023-01-29T03:48:02;94558.00;;;3.11;84.52
6389;BME280;3227;42.654;23.360;2023-01-29T03:50:36;94558.00;;;3.11;84.64
6389;BME280;3227;42.654;23.360;2023-01-29T03:53:08;94552.84;;;3.08;85.07
6389;BME280;3227;42.654;23.360;2023-01-29T03:55:43;94569.91;;;3.15;84.86
6389;BME280;3227;42.654;23.360;2023-01-29T03:58:24;94481.63;;;2.65;86.30
6389;BME280;3227;42.654;23.360;2023-01-29T04:00:57;94567.66;;;3.24;84.83
6389;BME280;3227;42.654;23.360;2023-01-29T04:03:31;94570.03;;;3.18;85.22
6389;BME280;3227;42.654;23.360;2023-01-29T04:06:03;94549.41;;;3.05;84.99
6389;BME280;3227;42.654;23.360;2023-01-29T04:08:39;94568.28;;;3.17;85.16
6389;BME280;3227;42.654;23.360;2023-01-29T04:11:11;94572.66;;;3.22;85.72
6389;BME280;3227;42.654;23.360;2023-01-29T04:13:40;94482.41;;;2.63;85.30
6389;BME280;3227;42.654;23.360;2023-01-29T04:16:11;94573.47;;;3.20;85.52
6389;BME280;3227;42.654;23.360;2023-01-29T04:18:43;94559.69;;;3.10;85.95
6389;BME280;3227;42.654;23.360;2023-01-29T04:21:10;94561.25;;;3.06;86.40
6389;BME280;3227;42.654;23.360;2023-01-29T04:23:37;94570.03;;;3.18;85.72
6389;BME280;3227;42.654;23.360;2023-01-29T04:26:32;94565.06;;;3.21;85.95
6389;BME280;3227;42.654;23.360;2023-01-29T04:29:19;94531.09;;;2.84;86.17
6389;BME280;3227;42.654;23.360;2023-01-29T04:31:55;94574.16;;;3.16;85.98
6389;BME280;3227;42.654;23.360;2023-01-29T04:34:34;94574.06;;;3.11;85.52
6389;BME280;3227;42.654;23.360;2023-01-29T04:37:11;94573.63;;;3.26;87.84
6389;BME280;3227;42.654;23.360;2023-01-29T04:39:46;94563.50;;;3.26;88.08
6389;BME280;3227;42.654;23.360;2023-01-29T04:42:20;94584.53;;;3.53;86.20
6389;BME280;3227;42.654;23.360;2023-01-29T04:44:58;94554.28;;;3.28;83.92
6389;BME280;3227;42.654;23.360;2023-01-29T04:47:33;94564.84;;;3.15;84.13
6389;BME280;3227;42.654;23.360;2023-01-29T04:50:11;94559.78;;;3.15;84.71
6389;BME280;3227;42.654;23.360;2023-01-29T04:52:45;94530.34;;;2.88;85.04
6389;BME280;3227;42.654;23.360;2023-01-29T04:55:19;94579.41;;;3.22;84.66
6389;BME280;3227;42.654;23.360;2023-01-29T04:57:51;94590.38;;;3.22;84.75
6389;BME280;3227;42.654;23.360;2023-01-29T05:00:23;94589.69;;;3.26;85.12
6389;BME280;3227;42.654;23.360;2023-01-29T05:02:53;94592.06;;;3.22;84.14
6389;BME280;3227;42.654;23.360;2023-01-29T05:05:22;94587.19;;;3.28;85.09
6389;BME280;3227;42.654;23.360;2023-01-29T05:07:49;94549.56;;;3.10;84.63
6389;BME280;3227;42.654;23.360;2023-01-29T05:10:18;94595.00;;;3.35;83.95
6389;BME280;3227;42.654;23.360;2023-01-29T05:12:50;94592.59;;;3.40;84.04
6389;BME280;3227;42.654;23.360;2023-01-29T05:15:24;94593.28;;;3.34;84.24
6389;BME280;3227;42.654;23.360;2023-01-29T05:17:52;94529.63;;;2.92;83.52
6389;BME280;3227;42.654;23.360;2023-01-29T05:20:28;94598.41;;;3.36;84.57
6389;BME280;3227;42.654;23.360;2023-01-29T05:22:56;94598.44;;;3.37;83.42
6389;BME280;3227;42.654;23.360;2023-01-29T05:25:25;94589.13;;;3.38;83.19
6389;BME280;3227;42.654;23.360;2023-01-29T05:27:54;94597.59;;;3.38;82.92
6389;BME280;3227;42.654;23.360;2023-01-29T05:30:28;94603.78;;;3.48;83.43
6389;BME280;3227;42.654;23.360;2023-01-29T05:32:55;94609.72;;;3.49;82.69
6389;BME280;3227;42.654;23.360;2023-01-29T05:35:22;94568.19;;;3.14;82.91
6389;BME280;3227;42.654;23.360;2023-01-29T05:37:50;94604.09;;;3.29;82.97
6389;BME280;3227;42.654;23.360;2023-01-29T05:40:17;94610.84;;;3.30;82.99
6389;BME280;3227;42.654;23.360;2023-01-29T05:42:44;94615.75;;;3.24;83.64
6389;BME280;3227;42.654;23.360;2023-01-29T05:45:11;94615.22;;;3.34;83.66
6389;BME280;3227;42.654;23.360;2023-01-29T05:47:37;94619.47;;;3.35;83.93
6389;BME280;3227;42.654;23.360;2023-01-29T05:50:05;94614.41;;;3.35;84.21
6389;BME280;3227;42.654;23.360;2023-01-29T05:52:32;94612.78;;;3.37;83.12
6389;BME280;3227;42.654;23.360;2023-01-29T05:55:00;94563.56;;;2.99;83.85
6389;BME280;3227;42.654;23.360;2023-01-29T05:57:27;94612.47;;;3.26;84.11
6389;BME280;3227;42.654;23.360;2023-01-29T05:59:54;94616.63;;;3.24;84.04
6389;BME280;3227;42.654;23.360;2023-01-29T06:02:21;94620.88;;;3.25;84.81
6389;BME280;3227;42.654;23.360;2023-01-29T06:04:49;94609.56;;;3.14;84.50
6389;BME280;3227;42.654;23.360;2023-01-29T06:07:16;94585.91;;;2.84;85.21
6389;BME280;3227;42.654;23.360;2023-01-29T06:09:43;94623.44;;;3.27;84.55
6389;BME280;3227;42.654;23.360;2023-01-29T06:12:11;94632.56;;;3.22;85.16
6389;BME280;3227;42.654;23.360;2023-01-29T06:14:38;94640.81;;;3.15;85.68
6389;BME280;3227;42.654;23.360;2023-01-29T06:17:05;94593.66;;;2.90;85.61
6389;BME280;3227;42.654;23.360;2023-01-29T06:19:32;94646.31;;;3.30;85.81
6389;BME280;3227;42.654;23.360;2023-01-29T06:21:59;94647.88;;;3.25;85.38
6389;BME280;3227;42.654;23.360;2023-01-29T06:24:25;94651.03;;;3.18;86.00
6389;BME280;3227;42.654;23.360;2023-01-29T06:26:52;94650.88;;;3.12;85.64
6389;BME280;3227;42.654;23.360;2023-01-29T06:29:20;94597.75;;;2.85;85.72
6389;BME280;3227;42.654;23.360;2023-01-29T06:31:47;94652.59;;;3.13;85.63
6389;BME280;3227;42.654;23.360;2023-01-29T06:34:14;94664.88;;;3.29;86.32
6389;BME280;3227;42.654;23.360;2023-01-29T06:36:41;94667.09;;;3.48;84.63
6389;BME280;3227;42.654;23.360;2023-01-29T06:39:08;94669.47;;;3.42;83.83
6389;BME280;3227;42.654;23.360;2023-01-29T06:41:34;94638.59;;;3.25;85.09
6389;BME280;3227;42.654;23.360;2023-01-29T06:44:01;94675.72;;;3.53;85.61
6389;BME280;3227;42.654;23.360;2023-01-29T06:46:29;94672.28;;;3.51;84.84
6389;BME280;3227;42.654;23.360;2023-01-29T06:48:57;94649.22;;;3.42;84.16
6389;BME280;3227;42.654;23.360;2023-01-29T06:51:25;94680.25;;;3.65;83.46
6389;BME280;3227;42.654;23.360;2023-01-29T06:53:52;94680.91;;;3.58;84.61
6389;BME280;3227;42.654;23.360;2023-01-29T06:56:20;94682.72;;;3.62;84.04
6389;BME280;3227;42.654;23.360;2023-01-29T06:58:47;94688.66;;;3.64;84.07
6389;BME280;3227;42.654;23.360;2023-01-29T07:01:15;94688.41;;;3.55;84.35
6389;BME280;3227;42.654;23.360;2023-01-29T07:03:44;94686.13;;;3.62;84.94
6389;BME280;3227;42.654;23.360;2023-01-29T07:06:10;94648.44;;;3.44;84.33
6389;BME280;3227;42.654;23.360;2023-01-29T07:08:38;94650.13;;;3.44;83.68
6389;BME280;3227;42.654;23.360;2023-01-29T07:11:05;94692.41;;;3.76;83.90
6389;BME280;3227;42.654;23.360;2023-01-29T07:13:32;94699.31;;;3.82;84.16
6389;BME280;3227;42.654;23.360;2023-01-29T07:16:00;94702.59;;;3.78;84.37
6389;BME280;3227;42.654;23.360;2023-01-29T07:18:27;94699.38;;;3.83;84.55
6389;BME280;3227;42.654;23.360;2023-01-29T07:20:56;94703.69;;;3.88;83.82
6389;BME280;3227;42.654;23.360;2023-01-29T07:23:23;94694.34;;;3.85;83.50
6389;BME280;3227;42.654;23.360;2023-01-29T07:25:50;94703.69;;;3.88;83.19
6389;BME280;3227;42.654;23.360;2023-01-29T07:28:19;94698.56;;;3.85;83.85
6389;BME280;3227;42.654;23.360;2023-01-29T07:30:46;94707.63;;;3.76;83.22
6389;BME280;3227;42.654;23.360;2023-01-29T07:33:13;94667.38;;;3.57;84.43
6389;BME280;3227;42.654;23.360;2023-01-29T07:35:41;94712.84;;;3.82;83.33
6389;BME280;3227;42.654;23.360;2023-01-29T07:38:10;94712.97;;;3.87;83.23
6389;BME280;3227;42.654;23.360;2023-01-29T07:40:37;94719.06;;;3.92;83.30
6389;BME280;3227;42.654;23.360;2023-01-29T07:43:05;94684.13;;;3.82;83.60
6389;BME280;3227;42.654;23.360;2023-01-29T07:45:34;94719.25;;;4.00;82.31
6389;BME280;3227;42.654;23.360;2023-01-29T07:48:01;94629.22;;;3.51;81.83
6389;BME280;3227;42.654;23.360;2023-01-29T07:50:31;94653.78;;;3.54;81.73
6389;BME280;3227;42.654;23.360;2023-01-29T07:52:58;94704.34;;;3.80;83.03
6389;BME280;3227;42.654;23.360;2023-01-29T07:55:26;94719.34;;;4.03;82.26
6389;BME280;3227;42.654;23.360;2023-01-29T07:57:57;94683.69;;;3.67;82.73
6389;BME280;3227;42.654;23.360;2023-01-29T08:00:24;94704.28;;;3.77;82.89
6389;BME280;3227;42.654;23.360;2023-01-29T08:02:51;94732.50;;;3.90;84.03
6389;BME280;3227;42.654;23.360;2023-01-29T08:05:18;94724.94;;;3.91;83.55
6389;BME280;3227;42.654;23.360;2023-01-29T08:07:45;94735.66;;;3.82;84.20
6389;BME280;3227;42.654;23.360;2023-01-29T08:10:11;94731.63;;;3.89;84.57
6389;BME280;3227;42.654;23.360;2023-01-29T08:12:39;94726.59;;;3.91;84.48
6389;BME280;3227;42.654;23.360;2023-01-29T08:15:07;94696.59;;;3.74;84.32
6389;BME280;3227;42.654;23.360;2023-01-29T08:17:34;94736.25;;;4.04;83.31
6389;BME280;3227;42.654;23.360;2023-01-29T08:20:04;94736.19;;;4.01;82.34
6389;BME280;3227;42.654;23.360;2023-01-29T08:22:31;94737.72;;;3.96;83.95
6389;BME280;3227;42.654;23.360;2023-01-29T08:24:58;94737.69;;;3.94;84.03
6389;BME280;3227;42.654;23.360;2023-01-29T08:27:25;94744.25;;;3.88;83.17
6389;BME280;3227;42.654;23.360;2023-01-29T08:29:53;94714.41;;;3.77;83.79
6389;BME280;3227;42.654;23.360;2023-01-29T08:32:20;94734.22;;;3.91;82.68
6389;BME280;3227;42.654;23.360;2023-01-29T08:34:46;94741.31;;;4.04;82.98
6389;BME280;3227;42.654;23.360;2023-01-29T08:37:13;94750.00;;;4.10;82.34
6389;BME280;3227;42.654;23.360;2023-01-29T08:39:40;94746.84;;;4.19;82.48
6389;BME280;3227;42.654;23.360;2023-01-29T08:42:07;94702.88;;;3.89;81.15
6389;BME280;3227;42.654;23.360;2023-01-29T08:44:33;94748.06;;;4.02;81.49
6389;BME280;3227;42.654;23.360;2023-01-29T08:47:02;94753.25;;;4.06;81.07
6389;BME280;3227;42.654;23.360;2023-01-29T08:49:29;94760.25;;;4.15;80.86
6389;BME280;3227;42.654;23.360;2023-01-29T08:51:56;94755.06;;;4.12;79.61
6389;BME280;3227;42.654;23.360;2023-01-29T08:54:22;94758.31;;;4.06;80.38
6389;BME280;3227;42.654;23.360;2023-01-29T08:56:50;94770.56;;;3.91;80.23
6389;BME280;3227;42.654;23.360;2023-01-29T08:59:16;94772.38;;;3.95;81.33
6389;BME280;3227;42.654;23.360;2023-01-29T09:01:43;94766.19;;;3.86;80.41
6389;BME280;3227;42.654;23.360;2023-01-29T09:04:11;94774.19;;;3.99;80.33
6389;BME280;3227;42.654;23.360;2023-01-29T09:06:38;94780.41;;;4.10;79.93
6389;BME280;3227;42.654;23.360;2023-01-29T09:09:05;94781.88;;;4.02;80.03
6389;BME280;3227;42.654;23.360;2023-01-29T09:11:32;94776.97;;;4.08;80.07
6389;BME280;3227;42.654;23.360;2023-01-29T09:13:59;94772.75;;;4.09;79.07
6389;BME280;3227;42.654;23.360;2023-01-29T09:16:26;94767.75;;;4.10;79.94
6389;BME280;3227;42.654;23.360;2023-01-29T09:18:52;94768.63;;;4.12;79.51
6389;BME280;3227;42.654;23.360;2023-01-29T09:21:21;94762.94;;;4.21;80.75
6389;BME280;3227;42.654;23.360;2023-01-29T09:23:47;94762.13;;;4.22;79.15
6389;BME280;3227;42.654;23.360;2023-01-29T09:26:14;94767.53;;;4.34;79.82
6389;BME280;3227;42.654;23.360;2023-01-29T09:28:41;94771.06;;;4.39;78.93
6389;BME280;3227;42.654;23.360;2023-01-29T09:31:08;94765.97;;;4.39;77.60
6389;BME280;3227;42.654;23.360;2023-01-29T09:33:34;94766.06;;;4.42;78.25
6389;BME280;3227;42.654;23.360;2023-01-29T09:36:01;94764.50;;;4.47;78.04
6389;BME280;3227;42.654;23.360;2023-01-29T09:38:30;94763.53;;;4.42;77.10
6389;BME280;3227;42.654;23.360;2023-01-29T09:41:01;94757.50;;;4.39;77.39
6389;BME280;3227;42.654;23.360;2023-01-29T09:43:41;94732.84;;;4.02;76.90
6389;BME280;3227;42.654;23.360;2023-01-29T09:46:16;94720.88;;;3.98;78.27
6389;BME280;3227;42.654;23.360;2023-01-29T09:48:56;94757.31;;;4.31;78.87
6389;BME280;3227;42.654;23.360;2023-01-29T09:51:27;94728.09;;;4.14;77.74
6389;BME280;3227;42.654;23.360;2023-01-29T09:54:05;94744.31;;;4.19;78.06
6389;BME280;3227;42.654;23.360;2023-01-29T09:56:34;94682.34;;;3.79;77.63
6389;BME280;3227;42.654;23.360;2023-01-29T09:59:01;94754.31;;;4.14;78.38
6389;BME280;3227;42.654;23.360;2023-01-29T10:01:32;94732.25;;;4.12;78.07
6389;BME280;3227;42.654;23.360;2023-01-29T10:04:39;94758.66;;;4.18;78.05
6389;BME280;3227;42.654;23.360;2023-01-29T10:07:28;94751.00;;;4.17;77.65
6389;BME280;3227;42.654;23.360;2023-01-29T10:10:07;94721.84;;;4.01;76.94
6389;BME280;3227;42.654;23.360;2023-01-29T10:12:45;94731.81;;;3.95;77.39
6389;BME280;3227;42.654;23.360;2023-01-29T10:15:27;94736.66;;;3.88;78.96
6389;BME280;3227;42.654;23.360;2023-01-29T10:20:57;94737.59;;;3.91;80.27
6389;BME280;3227;42.654;23.360;2023-01-29T10:23:31;94703.88;;;3.94;79.79
6389;BME280;3227;42.654;23.360;2023-01-29T10:26:00;94700.69;;;4.01;80.32
6389;BME280;3227;42.654;23.360;2023-01-29T10:28:31;94729.22;;;4.24;79.57
6389;BME280;3227;42.654;23.360;2023-01-29T10:31:03;94714.13;;;4.28;79.77
6389;BME280;3227;42.654;23.360;2023-01-29T10:33:35;94715.34;;;4.42;79.03
6389;BME280;3227;42.654;23.360;2023-01-29T10:36:07;94724.41;;;4.34;77.88
6389;BME280;3227;42.654;23.360;2023-01-29T10:38:42;94720.06;;;4.30;78.42
6389;BME280;3227;42.654;23.360;2023-01-29T10:41:37;94706.19;;;4.16;78.63
6389;BME280;3227;42.654;23.360;2023-01-29T10:44:17;94727.28;;;4.15;78.30
6389;BME280;3227;42.654;23.360;2023-01-29T10:46:59;94717.22;;;4.18;79.62
6389;BME280;3227;42.654;23.360;2023-01-29T10:49:46;94724.94;;;4.22;78.19
6389;BME280;3227;42.654;23.360;2023-01-29T10:52:31;94726.63;;;4.22;79.66
6389;BME280;3227;42.654;23.360;2023-01-29T10:55:07;94719.81;;;4.21;79.71
6389;BME280;3227;42.654;23.360;2023-01-29T10:57:53;94718.97;;;4.20;79.83
6389;BME280;3227;42.654;23.360;2023-01-29T11:00:27;94712.00;;;4.13;78.80
6389;BME280;3227;42.654;23.360;2023-01-29T11:02:55;94709.28;;;4.06;78.94
6389;BME280;3227;42.654;23.360;2023-01-29T11:05:26;94709.41;;;4.10;79.24
6389;BME280;3227;42.654;23.360;2023-01-29T11:08:01;94659.78;;;3.89;79.57
6389;BME280;3227;42.654;23.360;2023-01-29T11:10:32;94633.97;;;3.70;79.52
6389;BME280;3227;42.654;23.360;2023-01-29T11:13:04;94706.03;;;4.10;79.84
6389;BME280;3227;42.654;23.360;2023-01-29T11:15:32;94692.34;;;4.05;80.31
6389;BME280;3227;42.654;23.360;2023-01-29T11:18:06;94698.00;;;4.26;81.21
6389;BME280;3227;42.654;23.360;2023-01-29T11:20:36;94696.59;;;4.37;80.54
6389;BME280;3227;42.654;23.360;2023-01-29T11:23:02;94689.16;;;4.45;79.00
6389;BME280;3227;42.654;23.360;2023-01-29T11:25:30;94696.91;;;4.49;78.81
6389;BME280;3227;42.654;23.360;2023-01-29T11:27:59;94645.47;;;4.22;79.11
6389;BME280;3227;42.654;23.360;2023-01-29T11:30:30;94686.03;;;4.55;78.26
6389;BME280;3227;42.654;23.360;2023-01-29T11:33:07;94680.19;;;4.57;77.99
6389;BME280;3227;42.654;23.360;2023-01-29T11:35:34;94666.91;;;4.33;77.66
6389;BME280;3227;42.654;23.360;2023-01-29T11:38:07;94684.91;;;4.42;78.09
6389;BME280;3227;42.654;23.360;2023-01-29T11:40:38;94679.72;;;4.39;78.01
6389;BME280;3227;42.654;23.360;2023-01-29T11:43:17;94667.28;;;4.48;78.35
6389;BME280;3227;42.654;23.360;2023-01-29T11:45:47;94665.16;;;4.65;77.93
6389;BME280;3227;42.654;23.360;2023-01-29T11:48:16;94654.72;;;4.54;78.04
6389;BME280;3227;42.654;23.360;2023-01-29T11:50:50;94667.91;;;4.74;77.62
6389;BME280;3227;42.654;23.360;2023-01-29T11:53:26;94668.88;;;4.79;78.40
6389;BME280;3227;42.654;23.360;2023-01-29T11:55:57;94659.78;;;4.89;76.53
6389;BME280;3227;42.654;23.360;2023-01-29T11:58:26;94665.00;;;4.93;77.50
6389;BME280;3227;42.654;23.360;2023-01-29T12:00:57;94621.38;;;4.74;76.76
6389;BME280;3227;42.654;23.360;2023-01-29T12:03:31;94655.09;;;5.06;77.20
6389;BME280;3227;42.654;23.360;2023-01-29T12:06:02;94661.53;;;4.90;74.91
6389;BME280;3227;42.654;23.360;2023-01-29T12:08:34;94671.50;;;4.82;77.55
6389;BME280;3227;42.654;23.360;2023-01-29T12:11:11;94644.00;;;4.65;76.59
6389;BME280;3227;42.654;23.360;2023-01-29T12:13:38;94662.06;;;4.77;77.81
6389;BME280;3227;42.654;23.360;2023-01-29T12:16:20;94642.66;;;4.80;78.29
6389;BME280;3227;42.654;23.360;2023-01-29T12:18:53;94654.59;;;4.83;76.91
6389;BME280;3227;42.654;23.360;2023-01-29T12:21:27;94655.63;;;4.91;77.56
6389;BME280;3227;42.654;23.360;2023-01-29T12:24:00;94620.25;;;4.63;77.14
6389;BME280;3227;42.654;23.360;2023-01-29T12:26:32;94616.78;;;4.59;76.50
6389;BME280;3227;42.654;23.360;2023-01-29T12:29:24;94660.34;;;4.76;77.38
6389;BME280;3227;42.654;23.360;2023-01-29T12:32:00;94661.22;;;4.78;77.21
6389;BME280;3227;42.654;23.360;2023-01-29T12:34:36;94654.44;;;4.77;77.21
6389;BME280;3227;42.654;23.360;2023-01-29T12:37:16;94662.69;;;4.68;79.34
6389;BME280;3227;42.654;23.360;2023-01-29T12:39:45;94663.47;;;4.66;78.57
6389;BME280;3227;42.654;23.360;2023-01-29T12:42:16;94619.00;;;4.45;77.94
6389;BME280;3227;42.654;23.360;2023-01-29T12:44:47;94569.38;;;4.22;76.78
6389;BME280;3227;42.654;23.360;2023-01-29T12:47:21;94660.41;;;4.79;77.27
6389;BME280;3227;42.654;23.360;2023-01-29T12:49:52;94655.31;;;4.79;77.21
6389;BME280;3227;42.654;23.360;2023-01-29T12:52:24;94636.28;;;4.62;78.35
6389;BME280;3227;42.654;23.360;2023-01-29T12:54:54;94662.06;;;4.77;77.45
6389;BME280;3227;42.654;23.360;2023-01-29T12:57:28;94661.84;;;4.68;76.60
6389;BME280;3227;42.654;23.360;2023-01-29T13:00:03;94657.69;;;4.71;77.38
6389;BME280;3227;42.654;23.360;2023-01-29T13:02:36;94660.63;;;4.53;75.38
6389;BME280;3227;42.654;23.360;2023-01-29T13:05:17;94655.78;;;4.28;77.12
6389;BME280;3227;42.654;23.360;2023-01-29T13:08:00;94657.31;;;4.23;78.18
6389;BME280;3227;42.654;23.360;2023-01-29T13:10:31;94650.78;;;4.31;79.41
6389;BME280;3227;42.654;23.360;2023-01-29T13:13:03;94649.28;;;4.39;79.07
6389;BME280;3227;42.654;23.360;2023-01-29T13:15:34;94615.94;;;4.24;79.69
6389;BME280;3227;42.654;23.360;2023-01-29T13:21:04;94649.53;;;4.48;77.79
6389;BME280;3227;42.654;23.360;2023-01-29T13:23:33;94640.63;;;4.31;77.71
6389;BME280;3227;42.654;23.360;2023-01-29T13:26:02;94651.72;;;4.35;77.71
6389;BME280;3227;42.654;23.360;2023-01-29T13:28:30;94655.25;;;4.41;78.91
6389;BME280;3227;42.654;23.360;2023-01-29T13:31:13;94607.91;;;4.07;77.96
6389;BME280;3227;42.654;23.360;2023-01-29T13:33:51;94609.00;;;3.84;78.55
6389;BME280;3227;42.654;23.360;2023-01-29T13:36:24;94664.13;;;4.24;80.12
6389;BME280;3227;42.654;23.360;2023-01-29T13:38:56;94669.00;;;4.16;78.50
6389;BME280;3227;42.654;23.360;2023-01-29T13:41:31;94665.69;;;4.19;79.40
6389;BME280;3227;42.654;23.360;2023-01-29T13:43:59;94670.25;;;4.32;80.23
6389;BME280;3227;42.654;23.360;2023-01-29T13:46:26;94673.69;;;4.34;78.43
6389;BME280;3227;42.654;23.360;2023-01-29T13:48:55;94679.56;;;4.33;77.94
6389;BME280;3227;42.654;23.360;2023-01-29T13:51:31;94615.19;;;3.62;77.94